createdAt,value
2018-09-14T00:00:38.593Z,45.73
2018-09-14T00:03:07.837Z,46.17
2018-09-14T00:05:36.919Z,45.20
2018-09-14T00:08:05.489Z,54.90
2018-09-14T00:10:33.881Z,43.00
2018-09-14T00:13:02.493Z,43.27
2018-09-14T00:15:30.839Z,47.10
2018-09-14T00:17:59.318Z,44.57
2018-09-14T00:20:27.785Z,51.60
2018-09-14T00:22:56.257Z,53.87
2018-09-14T00:25:24.670Z,52.27
2018-09-14T00:27:53.037Z,58.40
2018-09-14T00:30:21.441Z,55.77
2018-09-14T00:32:49.788Z,64.37
2018-09-14T00:35:19.437Z,70.33
2018-09-14T00:37:47.754Z,71.57
2018-09-14T00:40:16.254Z,68.23
2018-09-14T00:42:44.549Z,69.17
2018-09-14T00:45:12.973Z,82.20
2018-09-14T00:47:41.377Z,71.27
2018-09-14T00:50:10.210Z,62.90
2018-09-14T00:52:38.525Z,61.07
2018-09-14T00:55:06.935Z,56.77
2018-09-14T00:57:35.285Z,49.93
2018-09-14T01:00:03.872Z,51.53
2018-09-14T01:02:32.213Z,54.47
2018-09-14T01:05:00.521Z,54.97
2018-09-14T01:07:29.161Z,59.27
2018-09-14T01:09:57.482Z,68.47
2018-09-14T01:12:25.907Z,57.77
2018-09-14T01:14:54.345Z,50.23
2018-09-14T01:17:22.789Z,58.87
2018-09-14T01:19:51.069Z,72.50
2018-09-14T01:22:19.494Z,75.10
2018-09-14T01:24:48.033Z,78.17
2018-09-14T01:27:16.474Z,92.07
2018-09-14T01:29:44.826Z,77.20
2018-09-14T01:32:13.222Z,93.03
2018-09-14T01:34:41.547Z,88.23
2018-09-14T01:37:09.943Z,89.90
2018-09-14T01:39:38.264Z,92.40
2018-09-14T01:42:06.885Z,103.27
2018-09-14T01:44:35.214Z,84.80
2018-09-14T01:47:03.793Z,88.37
2018-09-14T01:49:32.122Z,95.83
2018-09-14T01:52:01.928Z,96.73
2018-09-14T01:54:30.296Z,104.40
2018-09-14T01:56:58.717Z,103.20
2018-09-14T01:59:27.021Z,89.40
2018-09-14T02:01:55.333Z,96.33
2018-09-14T02:04:25.098Z,66.33
2018-09-14T02:06:53.437Z,54.63
2018-09-14T02:09:21.782Z,54.07
2018-09-14T02:11:50.203Z,58.93
2018-09-14T02:14:18.505Z,51.17
2018-09-14T02:16:46.834Z,53.27
2018-09-14T02:19:15.170Z,47.87
2018-09-14T02:21:43.489Z,45.97
2018-09-14T02:24:12.025Z,50.00
2018-09-14T02:26:40.386Z,54.87
2018-09-14T02:29:08.890Z,52.70
2018-09-14T02:31:37.204Z,54.00
2018-09-14T02:34:05.687Z,58.40
2018-09-14T02:36:34.024Z,55.60
2018-09-14T02:39:02.393Z,56.97
2018-09-14T02:41:30.701Z,48.23
2018-09-14T02:43:59.124Z,52.90
2018-09-14T02:46:27.554Z,48.67
2018-09-14T02:48:56.189Z,48.53
2018-09-14T02:51:24.536Z,53.47
2018-09-14T02:53:52.903Z,54.73
2018-09-14T02:56:21.267Z,52.93
2018-09-14T02:58:49.653Z,51.53
2018-09-14T03:01:18.197Z,57.43
2018-09-14T03:03:46.634Z,56.87
2018-09-14T03:06:15.047Z,52.93
2018-09-14T03:08:43.566Z,60.13
2018-09-14T03:11:11.905Z,64.73
2018-09-14T03:13:40.410Z,62.50
2018-09-14T03:16:08.762Z,59.23
2018-09-14T03:18:37.173Z,56.13
2018-09-14T03:21:05.678Z,59.83
2018-09-14T03:23:34.052Z,58.40
2018-09-14T03:26:02.365Z,58.57
2018-09-14T03:28:30.800Z,61.63
2018-09-14T03:30:59.127Z,63.87
2018-09-14T03:33:27.461Z,60.37
2018-09-14T03:35:55.838Z,63.70
2018-09-14T03:38:24.273Z,59.20
2018-09-14T03:40:52.599Z,64.27
2018-09-14T03:43:21.117Z,54.27
2018-09-14T03:45:49.826Z,56.90
2018-09-14T03:48:18.240Z,64.20
2018-09-14T03:50:46.610Z,61.37
2018-09-14T03:53:14.941Z,67.80
2018-09-14T03:55:43.326Z,62.17
2018-09-14T03:58:11.763Z,61.60
2018-09-14T04:00:40.357Z,64.03
2018-09-14T04:03:08.929Z,60.50
2018-09-14T04:05:37.834Z,61.37
2018-09-14T04:08:06.700Z,63.63
2018-09-14T04:10:35.155Z,66.60
2018-09-14T04:13:03.465Z,65.13
2018-09-14T04:15:31.814Z,64.90
2018-09-14T04:18:00.265Z,62.27
2018-09-14T04:20:28.662Z,58.87
2018-09-14T04:22:56.973Z,63.33
2018-09-14T04:25:25.423Z,65.33
2018-09-14T04:27:53.813Z,63.07
2018-09-14T04:30:22.134Z,68.23
2018-09-14T04:32:50.585Z,72.53
2018-09-14T04:35:18.923Z,66.37
2018-09-14T04:37:47.279Z,71.53
2018-09-14T04:40:15.754Z,66.10
2018-09-14T04:42:44.143Z,72.63
2018-09-14T04:45:13.253Z,77.63
2018-09-14T04:47:41.609Z,70.60
2018-09-14T04:50:09.930Z,67.63
2018-09-14T04:52:38.270Z,72.30
2018-09-14T04:55:06.613Z,70.53
2018-09-14T04:57:35.100Z,70.10
2018-09-14T05:00:03.526Z,75.30
2018-09-14T05:02:32.035Z,77.60
2018-09-14T05:05:00.426Z,71.63
2018-09-14T05:07:28.762Z,69.97
2018-09-14T05:09:57.177Z,75.73
2018-09-14T05:12:25.497Z,76.77
2018-09-14T05:14:53.853Z,64.60
2018-09-14T05:17:22.190Z,70.50
2018-09-14T05:19:50.702Z,72.07
2018-09-14T05:22:19.146Z,70.83
2018-09-14T05:24:47.598Z,74.93
2018-09-14T05:27:15.993Z,69.50
2018-09-14T05:29:44.341Z,74.40
2018-09-14T05:32:12.654Z,75.10
2018-09-14T05:34:41.009Z,69.50
2018-09-14T05:37:09.414Z,74.00
2018-09-14T05:39:37.937Z,75.70
2018-09-14T05:42:06.326Z,71.77
2018-09-14T05:44:34.650Z,80.77
2018-09-14T05:47:02.986Z,69.47
2018-09-14T05:49:31.421Z,74.03
2018-09-14T05:51:59.679Z,77.73
2018-09-14T05:54:28.084Z,80.10
2018-09-14T05:56:56.459Z,67.63
2018-09-14T05:59:24.821Z,80.60
2018-09-14T06:01:53.385Z,74.73
2018-09-14T06:04:21.764Z,64.60
2018-09-14T06:06:50.075Z,72.73
2018-09-14T06:09:18.398Z,66.80
2018-09-14T06:11:46.743Z,61.33
2018-09-14T06:14:15.416Z,68.60
2018-09-14T06:16:43.782Z,73.80
2018-09-14T06:19:12.113Z,69.33
2018-09-14T06:21:40.458Z,67.03
2018-09-14T06:24:08.781Z,68.27
2018-09-14T06:26:37.254Z,65.60
2018-09-14T06:29:05.775Z,61.47
2018-09-14T06:31:34.261Z,44.17
2018-09-14T06:34:02.712Z,48.23
2018-09-14T06:36:31.261Z,53.97
2018-09-14T06:38:59.705Z,63.80
2018-09-14T06:41:28.049Z,68.63
2018-09-14T06:43:56.393Z,71.10
2018-09-14T06:46:24.778Z,71.40
2018-09-14T06:48:53.117Z,63.83
2018-09-14T06:51:21.475Z,62.13
2018-09-14T06:53:49.834Z,63.77
2018-09-14T06:56:19.406Z,66.40
2018-09-14T06:58:47.858Z,72.33
2018-09-14T07:01:16.355Z,66.77
2018-09-14T07:03:44.764Z,62.23
2018-09-14T07:06:13.093Z,64.10
2018-09-14T07:08:41.525Z,55.47
2018-09-14T07:11:09.869Z,72.33
2018-09-14T07:13:38.254Z,51.80
2018-09-14T07:16:08.358Z,54.07
2018-09-14T07:18:36.705Z,58.50
2018-09-14T07:21:05.401Z,54.37
2018-09-14T07:23:33.714Z,47.93
2018-09-14T07:26:02.182Z,54.50
2018-09-14T07:28:30.474Z,55.17
2018-09-14T07:30:58.846Z,55.30
2018-09-14T07:33:27.213Z,51.43
2018-09-14T07:35:55.518Z,56.60
2018-09-14T07:38:23.843Z,56.13
2018-09-14T07:40:52.210Z,51.37
2018-09-14T07:43:20.601Z,57.50
2018-09-14T07:45:48.931Z,61.17
2018-09-14T07:48:17.301Z,67.13
2018-09-14T07:50:45.714Z,60.57
2018-09-14T07:53:14.076Z,58.40
2018-09-14T07:55:42.389Z,65.43
2018-09-14T07:58:10.723Z,60.30
2018-09-14T08:00:39.402Z,65.30
2018-09-14T08:03:07.984Z,64.23
2018-09-14T08:05:36.282Z,55.20
2018-09-14T08:08:04.771Z,52.90
2018-09-14T08:10:33.106Z,48.57
2018-09-14T08:13:01.457Z,54.47
2018-09-14T08:15:29.757Z,52.47
2018-09-14T08:17:58.221Z,61.63
2018-09-14T08:20:26.766Z,56.27
2018-09-14T08:22:55.099Z,57.10
2018-09-14T08:25:23.593Z,49.10
2018-09-14T08:27:51.970Z,49.73
2018-09-14T08:30:20.562Z,52.80
2018-09-14T08:32:49.042Z,46.00
2018-09-14T08:35:17.465Z,51.87
2018-09-14T08:37:45.829Z,45.47
2018-09-14T08:40:14.291Z,51.07
2018-09-14T08:42:42.828Z,46.83
2018-09-14T08:45:11.177Z,45.67
2018-09-14T08:47:39.597Z,49.57
2018-09-14T08:50:07.937Z,47.20
2018-09-14T08:52:36.285Z,50.93
2018-09-14T08:55:04.702Z,44.43
2018-09-14T08:57:33.061Z,43.03
2018-09-14T09:00:01.461Z,45.07
2018-09-14T09:02:29.982Z,35.20
2018-09-14T09:04:58.326Z,44.10
2018-09-14T09:07:26.698Z,38.37
2018-09-14T09:09:55.178Z,35.67
2018-09-14T09:12:23.550Z,34.57
2018-09-14T09:14:52.097Z,35.40
2018-09-14T09:17:20.445Z,33.53
2018-09-14T09:19:48.782Z,31.27
2018-09-14T09:22:17.226Z,34.73
2018-09-14T09:24:45.560Z,34.40
2018-09-14T09:27:13.957Z,33.37
2018-09-14T09:29:42.369Z,29.80
2018-09-14T09:32:10.699Z,32.17
2018-09-14T09:34:39.149Z,30.73
2018-09-14T09:37:07.530Z,29.53
2018-09-14T09:39:35.995Z,25.60
2018-09-14T09:42:05.986Z,33.57
2018-09-14T09:44:34.332Z,27.03
2018-09-14T09:47:02.702Z,27.90
2018-09-14T09:49:31.092Z,27.67
2018-09-14T09:51:59.557Z,26.50
2018-09-14T09:54:27.986Z,27.00
2018-09-14T09:56:56.487Z,28.10
2018-09-14T09:59:24.800Z,25.67
2018-09-14T10:01:58.662Z,27.33
2018-09-14T10:04:34.321Z,24.47
2018-09-14T10:07:02.670Z,22.97
2018-09-14T10:09:31.096Z,24.60
2018-09-14T10:11:59.633Z,24.10
2018-09-14T10:14:28.003Z,23.93
2018-09-14T10:16:56.450Z,23.63
2018-09-14T10:19:24.781Z,25.23
2018-09-14T10:21:53.228Z,23.33
2018-09-14T10:24:21.690Z,24.80
2018-09-14T10:26:50.058Z,26.60
2018-09-14T10:29:18.570Z,28.90
2018-09-14T10:31:46.935Z,24.40
2018-09-14T10:34:15.261Z,21.87
2018-09-14T10:36:43.601Z,27.00
2018-09-14T10:39:12.632Z,21.13
2018-09-14T10:41:41.009Z,21.10
2018-09-14T10:44:09.327Z,24.27
2018-09-14T10:46:37.662Z,23.10
2018-09-14T10:49:06.126Z,21.63
2018-09-14T10:51:34.545Z,23.00
2018-09-14T10:54:02.984Z,23.20
2018-09-14T10:56:31.459Z,21.17
2018-09-14T10:58:59.771Z,20.73
2018-09-14T11:01:28.290Z,19.63
2018-09-14T11:03:56.620Z,21.40
2018-09-14T11:06:25.050Z,24.53
2018-09-14T11:08:53.613Z,22.87
2018-09-14T11:11:21.934Z,19.70
2018-09-14T11:13:50.567Z,20.20
2018-09-14T11:16:18.886Z,23.20
2018-09-14T11:18:47.520Z,23.70
2018-09-14T11:21:15.638Z,24.10
2018-09-14T11:23:43.995Z,22.60
2018-09-14T11:26:12.346Z,24.20
2018-09-14T11:28:40.742Z,20.47
2018-09-14T11:31:09.089Z,22.73
2018-09-14T11:33:37.461Z,20.43
2018-09-14T11:36:05.805Z,25.57
2018-09-14T11:38:34.329Z,23.17
2018-09-14T11:41:02.688Z,25.97
2018-09-14T11:43:31.085Z,25.50
2018-09-14T11:45:59.425Z,22.70
2018-09-14T11:48:27.881Z,26.33
2018-09-14T11:50:56.473Z,26.93
2018-09-14T11:53:24.834Z,26.37
2018-09-14T11:55:53.474Z,27.17
2018-09-14T11:58:21.824Z,26.67
2018-09-14T12:00:50.921Z,25.67
2018-09-14T12:03:19.329Z,32.20
2018-09-14T12:05:47.675Z,21.07
2018-09-14T12:08:16.226Z,17.73
2018-09-14T12:10:44.578Z,19.30
2018-09-14T12:13:13.053Z,24.30
2018-09-14T12:15:41.549Z,18.83
2018-09-14T12:18:10.149Z,20.30
2018-09-14T12:20:38.829Z,21.30
2018-09-14T12:23:07.247Z,21.07
2018-09-14T12:25:37.288Z,20.83
2018-09-14T12:28:06.225Z,22.77
2018-09-14T12:30:34.696Z,22.83
2018-09-14T12:33:03.160Z,22.60
2018-09-14T12:35:31.643Z,22.63
2018-09-14T12:37:59.950Z,24.73
2018-09-14T12:40:28.291Z,16.63
2018-09-14T12:42:56.641Z,14.87
2018-09-14T12:45:25.103Z,16.80
2018-09-14T12:47:53.449Z,22.43
2018-09-14T12:50:21.898Z,18.57
2018-09-14T12:52:50.302Z,17.50
2018-09-14T12:55:18.638Z,16.90
2018-09-14T12:57:46.952Z,16.60
2018-09-14T13:00:15.347Z,12.83
2018-09-14T13:02:43.660Z,14.30
2018-09-14T13:05:13.401Z,17.17
2018-09-14T13:07:41.763Z,12.87
2018-09-14T13:10:10.108Z,12.80
2018-09-14T13:12:38.631Z,12.60
2018-09-14T13:15:07.001Z,15.43
2018-09-14T13:17:35.320Z,12.80
2018-09-14T13:20:03.733Z,12.80
2018-09-14T13:22:32.065Z,12.10
2018-09-14T13:25:00.486Z,12.97
2018-09-14T13:27:28.832Z,12.87
2018-09-14T13:29:57.506Z,10.40
2018-09-14T13:32:25.849Z,9.67
2018-09-14T13:34:54.446Z,13.93
2018-09-14T13:37:22.777Z,11.47
2018-09-14T13:39:51.126Z,12.30
2018-09-14T13:42:19.449Z,11.00
2018-09-14T13:44:47.785Z,14.40
2018-09-14T13:47:16.104Z,15.67
2018-09-14T13:49:44.926Z,13.73
2018-09-14T13:52:13.432Z,15.73
2018-09-14T13:54:41.745Z,10.60
2018-09-14T13:57:10.094Z,13.43
2018-09-14T13:59:38.477Z,12.93
2018-09-14T14:02:06.838Z,10.80
2018-09-14T14:04:35.300Z,10.80
2018-09-14T14:07:03.965Z,12.37
2018-09-14T14:09:32.351Z,11.20
2018-09-14T14:12:00.662Z,11.00
2018-09-14T14:14:29.123Z,10.23
2018-09-14T14:16:57.662Z,12.80
2018-09-14T14:19:25.977Z,10.67
2018-09-14T14:21:54.314Z,11.70
2018-09-14T14:24:22.662Z,15.17
2018-09-14T14:26:51.298Z,14.00
2018-09-14T14:29:19.846Z,13.23
2018-09-14T14:31:48.216Z,11.70
2018-09-14T14:34:16.729Z,14.97
2018-09-14T14:36:45.121Z,14.63
2018-09-14T14:39:13.459Z,15.97
2018-09-14T14:41:42.085Z,14.50
2018-09-14T14:44:10.580Z,14.40
2018-09-14T14:46:39.085Z,22.20
2018-09-14T14:49:07.451Z,17.67
2018-09-14T14:51:35.859Z,23.00
2018-09-14T14:54:04.409Z,23.13
2018-09-14T14:56:32.946Z,25.17
2018-09-14T14:59:01.249Z,23.93
2018-09-14T15:01:29.617Z,32.50
2018-09-14T15:03:58.004Z,24.67
2018-09-14T15:06:26.448Z,26.40
2018-09-14T15:08:54.787Z,27.27
2018-09-14T15:11:23.481Z,25.97
2018-09-14T15:13:51.917Z,28.53
2018-09-14T15:16:20.264Z,30.63
2018-09-14T15:18:48.715Z,22.90
2018-09-14T15:21:17.230Z,25.23
2018-09-14T15:23:45.574Z,27.07
2018-09-14T15:26:13.980Z,24.40
2018-09-14T15:28:42.484Z,26.60
2018-09-14T15:31:11.038Z,32.30
2018-09-14T15:33:39.438Z,26.83
2018-09-14T15:36:07.862Z,26.27
2018-09-14T15:38:36.342Z,27.70
2018-09-14T15:41:04.787Z,22.70
2018-09-14T15:43:33.175Z,27.40
2018-09-14T15:46:01.818Z,24.13
2018-09-14T15:48:30.279Z,24.10
2018-09-14T15:50:58.866Z,22.40
2018-09-14T15:53:27.230Z,23.43
2018-09-14T15:55:55.700Z,24.47
2018-09-14T15:58:24.093Z,21.27
2018-09-14T16:00:52.547Z,23.50
2018-09-14T16:03:21.558Z,25.30
2018-09-14T16:05:50.651Z,23.63
2018-09-14T16:08:19.006Z,22.33
2018-09-14T16:10:47.438Z,25.40
2018-09-14T16:13:15.757Z,22.37
2018-09-14T16:15:44.213Z,21.60
2018-09-14T16:18:12.637Z,22.60
2018-09-14T16:20:41.274Z,18.33
2018-09-14T16:23:09.696Z,20.63
2018-09-14T16:25:38.273Z,22.87
2018-09-14T16:28:06.689Z,25.87
2018-09-14T16:30:35.170Z,20.53
2018-09-14T16:33:03.751Z,16.43
2018-09-14T16:35:32.210Z,18.53
2018-09-14T16:38:01.098Z,19.60
2018-09-14T16:40:29.668Z,17.40
2018-09-14T16:42:58.021Z,19.03
2018-09-14T16:45:26.355Z,18.43
2018-09-14T16:47:55.014Z,22.47
2018-09-14T16:50:23.651Z,20.43
2018-09-14T16:52:51.951Z,19.60
2018-09-14T16:55:20.491Z,19.10
2018-09-14T16:57:48.832Z,20.33
2018-09-14T17:00:17.182Z,17.23
2018-09-14T17:02:45.648Z,16.90
2018-09-14T17:05:15.680Z,15.23
2018-09-14T17:07:45.492Z,20.50
2018-09-14T17:10:13.849Z,24.60
2018-09-14T17:12:42.708Z,19.30
2018-09-14T17:15:11.079Z,18.30
2018-09-14T17:17:39.494Z,21.20
2018-09-14T17:20:08.160Z,19.73
2018-09-14T17:22:36.641Z,20.63
2018-09-14T17:25:05.030Z,20.90
2018-09-14T17:27:33.457Z,22.30
2018-09-14T17:30:01.843Z,19.50
2018-09-14T17:32:30.300Z,18.13
2018-09-14T17:34:58.718Z,18.73
2018-09-14T17:37:27.067Z,19.27
2018-09-14T17:39:55.673Z,18.03
2018-09-14T17:42:24.086Z,13.93
2018-09-14T17:44:52.443Z,16.00
2018-09-14T17:47:20.811Z,20.23
2018-09-14T17:49:49.363Z,16.77
2018-09-14T17:52:17.982Z,17.73
2018-09-14T17:54:46.337Z,15.53
2018-09-14T17:57:14.965Z,18.07
2018-09-14T17:59:43.493Z,19.00
2018-09-14T18:02:11.918Z,19.97
2018-09-14T18:04:40.409Z,17.83
2018-09-14T18:07:08.842Z,17.40
2018-09-14T18:09:37.167Z,14.30
2018-09-14T18:12:05.655Z,17.80
2018-09-14T18:14:34.125Z,21.33
2018-09-14T18:17:02.614Z,22.00
2018-09-14T18:19:31.102Z,16.63
2018-09-14T18:21:59.565Z,16.53
2018-09-14T18:24:27.881Z,19.73
2018-09-14T18:26:56.245Z,20.10
2018-09-14T18:29:24.750Z,19.77
2018-09-14T18:31:53.130Z,15.37
2018-09-14T18:34:21.737Z,14.27
2018-09-14T18:36:50.238Z,13.17
2018-09-14T18:39:18.603Z,16.07
2018-09-14T18:41:47.262Z,13.40
2018-09-14T18:44:15.775Z,14.93
2018-09-14T18:46:44.219Z,13.50
2018-09-14T18:49:12.656Z,13.67
2018-09-14T18:51:41.002Z,12.10
2018-09-14T18:54:09.491Z,12.63
2018-09-14T18:56:37.802Z,14.10
2018-09-14T18:59:06.836Z,13.13
2018-09-14T19:01:35.352Z,11.83
2018-09-14T19:04:03.961Z,13.97
2018-09-14T19:06:32.323Z,10.90
2018-09-14T19:09:00.753Z,11.93
2018-09-14T19:11:29.123Z,10.47
2018-09-14T19:13:57.426Z,10.23
2018-09-14T19:16:26.051Z,12.63
2018-09-14T19:18:54.385Z,12.90
2018-09-14T19:21:22.728Z,11.70
2018-09-14T19:23:51.095Z,10.80
2018-09-14T19:26:19.425Z,12.60
2018-09-14T19:28:47.907Z,12.50
2018-09-14T19:31:16.443Z,11.97
2018-09-14T19:33:45.241Z,11.40
2018-09-14T19:36:13.739Z,11.27
2018-09-14T19:38:42.215Z,13.43
2018-09-14T19:41:10.758Z,12.80
2018-09-14T19:43:40.824Z,13.17
2018-09-14T19:46:09.410Z,13.00
2018-09-14T19:48:37.799Z,11.13
2018-09-14T19:51:06.239Z,14.20
2018-09-14T19:53:34.611Z,11.70
2018-09-14T19:56:03.001Z,11.57
2018-09-14T19:58:31.338Z,14.77
2018-09-14T20:00:59.677Z,14.30
2018-09-14T20:03:28.085Z,11.80
2018-09-14T20:05:57.296Z,10.97
2018-09-14T20:08:25.659Z,16.50
2018-09-14T20:10:54.066Z,12.40
2018-09-14T20:13:22.436Z,15.80
2018-09-14T20:15:50.970Z,15.20
2018-09-14T20:18:19.352Z,11.47
2018-09-14T20:20:47.715Z,11.70
2018-09-14T20:23:16.315Z,10.93
2018-09-14T20:25:44.679Z,11.40
2018-09-14T20:28:13.203Z,10.27
2018-09-14T20:30:42.241Z,13.10
2018-09-14T20:33:10.869Z,13.13
2018-09-14T20:35:39.374Z,11.77
2018-09-14T20:38:07.932Z,12.23
2018-09-14T20:40:36.437Z,10.37
2018-09-14T20:43:04.979Z,12.23
2018-09-14T20:45:33.326Z,11.20
2018-09-14T20:48:01.983Z,11.43
2018-09-14T20:50:30.313Z,12.00
2018-09-14T20:52:58.710Z,9.23
2018-09-14T20:55:27.217Z,8.97
2018-09-14T20:57:55.676Z,11.20
2018-09-14T21:00:24.762Z,10.37
2018-09-14T21:02:53.793Z,11.17
2018-09-14T21:05:22.590Z,14.10
2018-09-14T21:07:51.065Z,11.63
2018-09-14T21:10:19.490Z,12.23
2018-09-14T21:12:48.071Z,11.00
2018-09-14T21:15:16.786Z,9.57
2018-09-14T21:17:45.190Z,11.20
2018-09-14T21:20:13.672Z,11.57
2018-09-14T21:22:42.605Z,12.00
2018-09-14T21:25:11.067Z,11.17
2018-09-14T21:27:39.516Z,17.60
2018-09-14T21:30:08.158Z,14.47
2018-09-14T21:32:37.917Z,11.03
2018-09-14T21:35:06.501Z,11.70
2018-09-14T21:37:34.817Z,15.90
2018-09-14T21:40:03.286Z,11.00
2018-09-14T21:42:31.829Z,11.77
2018-09-14T21:45:00.186Z,12.73
2018-09-14T21:47:28.902Z,12.00
2018-09-14T21:49:57.367Z,11.03
2018-09-14T21:52:26.083Z,11.40
2018-09-14T21:54:54.587Z,11.33
2018-09-14T21:57:23.246Z,12.30
2018-09-14T21:59:51.613Z,10.60
2018-09-14T22:02:20.091Z,12.60
2018-09-14T22:04:48.448Z,12.53
2018-09-14T22:07:17.019Z,12.27
2018-09-14T22:09:45.355Z,10.90
2018-09-14T22:12:13.738Z,12.90
2018-09-14T22:14:42.190Z,9.70
2018-09-14T22:17:10.598Z,10.07
2018-09-14T22:19:39.059Z,14.17
2018-09-14T22:22:07.555Z,12.07
2018-09-14T22:24:35.883Z,10.73
2018-09-14T22:27:04.245Z,13.03
2018-09-14T22:29:32.843Z,10.83
2018-09-14T22:32:01.307Z,13.27
2018-09-14T22:34:29.702Z,13.13
2018-09-14T22:36:58.007Z,13.37
2018-09-14T22:39:26.360Z,11.03
2018-09-14T22:41:54.716Z,11.37
2018-09-14T22:44:23.169Z,11.30
2018-09-14T22:46:51.769Z,13.20
2018-09-14T22:49:20.182Z,11.20
2018-09-14T22:51:48.669Z,11.33
2018-09-14T22:54:17.186Z,12.83
2018-09-14T22:56:45.639Z,18.07
2018-09-14T22:59:14.039Z,10.83
2018-09-14T23:01:42.495Z,11.60
2018-09-14T23:04:10.855Z,11.50
2018-09-14T23:06:39.282Z,12.83
2018-09-14T23:09:08.178Z,12.30
2018-09-14T23:11:36.618Z,11.53
2018-09-14T23:14:05.025Z,11.10
2018-09-14T23:16:33.386Z,18.27
2018-09-14T23:19:01.899Z,12.67
2018-09-14T23:21:30.190Z,12.60
2018-09-14T23:23:58.767Z,11.50
2018-09-14T23:26:27.852Z,12.40
2018-09-14T23:28:56.235Z,11.73
2018-09-14T23:31:24.565Z,12.80
2018-09-14T23:33:53.021Z,11.90
2018-09-14T23:36:21.383Z,13.53
2018-09-14T23:38:49.769Z,10.10
2018-09-14T23:41:18.125Z,12.83
2018-09-14T23:43:47.792Z,10.30
2018-09-14T23:46:16.268Z,12.87
2018-09-14T23:48:44.742Z,11.10
2018-09-14T23:51:13.327Z,12.30
2018-09-14T23:53:41.668Z,11.17
2018-09-14T23:56:10.011Z,13.07
2018-09-14T23:58:38.454Z,10.23
